sensor_id;sensor_type;location;lat;lon;timestamp;P1;durP1;ratioP1;P2;durP2;ratioP2
21315;SDS011;10817;55.820;13.030;2023-08-24T00:00:21;5.45;;;1.40;;
21315;SDS011;10817;55.820;13.030;2023-08-24T00:02:49;5.80;;;1.80;;
21315;SDS011;10817;55.820;13.030;2023-08-24T00:05:16;7.82;;;2.05;;
21315;SDS011;10817;55.820;13.030;2023-08-24T00:07:44;7.13;;;1.60;;
21315;SDS011;10817;55.820;13.030;2023-08-24T00:10:14;6.65;;;1.95;;
21315;SDS011;10817;55.820;13.030;2023-08-24T00:12:43;4.72;;;2.17;;
21315;SDS011;10817;55.820;13.030;2023-08-24T00:15:10;3.60;;;1.98;;
21315;SDS011;10817;55.820;13.030;2023-08-24T00:17:38;5.78;;;1.70;;
21315;SDS011;10817;55.820;13.030;2023-08-24T00:20:06;3.58;;;1.90;;
21315;SDS011;10817;55.820;13.030;2023-08-24T00:22:36;2.88;;;1.52;;
21315;SDS011;10817;55.820;13.030;2023-08-24T00:25:04;8.73;;;2.25;;
21315;SDS011;10817;55.820;13.030;2023-08-24T00:27:33;2.65;;;1.48;;
21315;SDS011;10817;55.820;13.030;2023-08-24T00:30:02;4.05;;;1.70;;
21315;SDS011;10817;55.820;13.030;2023-08-24T00:32:30;4.13;;;1.77;;
21315;SDS011;10817;55.820;13.030;2023-08-24T00:34:58;2.97;;;1.65;;
21315;SDS011;10817;55.820;13.030;2023-08-24T00:37:27;8.32;;;1.80;;
21315;SDS011;10817;55.820;13.030;2023-08-24T00:39:55;4.47;;;2.35;;
21315;SDS011;10817;55.820;13.030;2023-08-24T00:42:22;5.00;;;1.58;;
21315;SDS011;10817;55.820;13.030;2023-08-24T00:44:51;5.50;;;1.88;;
21315;SDS011;10817;55.820;13.030;2023-08-24T00:47:18;4.40;;;1.85;;
21315;SDS011;10817;55.820;13.030;2023-08-24T00:49:46;2.80;;;1.55;;
21315;SDS011;10817;55.820;13.030;2023-08-24T00:52:14;5.22;;;1.80;;
21315;SDS011;10817;55.820;13.030;2023-08-24T00:54:42;3.92;;;1.65;;
21315;SDS011;10817;55.820;13.030;2023-08-24T00:57:09;5.20;;;2.03;;
21315;SDS011;10817;55.820;13.030;2023-08-24T00:59:37;6.40;;;1.67;;
21315;SDS011;10817;55.820;13.030;2023-08-24T01:02:06;8.18;;;2.00;;
21315;SDS011;10817;55.820;13.030;2023-08-24T01:04:34;7.28;;;1.80;;
21315;SDS011;10817;55.820;13.030;2023-08-24T01:07:01;8.65;;;2.20;;
21315;SDS011;10817;55.820;13.030;2023-08-24T01:09:29;5.35;;;1.85;;
21315;SDS011;10817;55.820;13.030;2023-08-24T01:11:58;7.22;;;1.92;;
21315;SDS011;10817;55.820;13.030;2023-08-24T01:14:30;6.00;;;2.00;;
21315;SDS011;10817;55.820;13.030;2023-08-24T01:16:58;3.28;;;1.70;;
21315;SDS011;10817;55.820;13.030;2023-08-24T01:19:34;7.93;;;2.50;;
21315;SDS011;10817;55.820;13.030;2023-08-24T01:22:02;6.32;;;2.15;;
21315;SDS011;10817;55.820;13.030;2023-08-24T01:24:35;7.05;;;2.42;;
21315;SDS011;10817;55.820;13.030;2023-08-24T01:27:05;5.35;;;2.20;;
21315;SDS011;10817;55.820;13.030;2023-08-24T01:29:32;4.90;;;2.05;;
21315;SDS011;10817;55.820;13.030;2023-08-24T01:32:00;5.75;;;1.90;;
21315;SDS011;10817;55.820;13.030;2023-08-24T01:34:28;8.30;;;2.17;;
21315;SDS011;10817;55.820;13.030;2023-08-24T01:36:55;10.23;;;2.30;;
21315;SDS011;10817;55.820;13.030;2023-08-24T01:39:25;3.20;;;2.05;;
21315;SDS011;10817;55.820;13.030;2023-08-24T01:41:54;7.85;;;2.25;;
21315;SDS011;10817;55.820;13.030;2023-08-24T01:44:24;7.22;;;2.65;;
21315;SDS011;10817;55.820;13.030;2023-08-24T01:46:53;3.30;;;2.22;;
21315;SDS011;10817;55.820;13.030;2023-08-24T01:49:24;10.43;;;2.00;;
21315;SDS011;10817;55.820;13.030;2023-08-24T01:51:52;5.03;;;1.98;;
21315;SDS011;10817;55.820;13.030;2023-08-24T01:54:22;4.93;;;2.20;;
21315;SDS011;10817;55.820;13.030;2023-08-24T01:56:49;6.93;;;2.30;;
21315;SDS011;10817;55.820;13.030;2023-08-24T01:59:17;12.88;;;2.45;;
21315;SDS011;10817;55.820;13.030;2023-08-24T02:01:46;4.93;;;2.30;;
21315;SDS011;10817;55.820;13.030;2023-08-24T02:04:13;7.07;;;2.60;;
21315;SDS011;10817;55.820;13.030;2023-08-24T02:06:40;7.00;;;2.42;;
21315;SDS011;10817;55.820;13.030;2023-08-24T02:09:08;7.97;;;2.55;;
21315;SDS011;10817;55.820;13.030;2023-08-24T02:11:35;6.40;;;2.40;;
21315;SDS011;10817;55.820;13.030;2023-08-24T02:14:03;6.05;;;2.33;;
21315;SDS011;10817;55.820;13.030;2023-08-24T02:16:35;6.72;;;2.58;;
21315;SDS011;10817;55.820;13.030;2023-08-24T02:19:04;5.70;;;2.53;;
21315;SDS011;10817;55.820;13.030;2023-08-24T02:21:31;5.75;;;2.42;;
21315;SDS011;10817;55.820;13.030;2023-08-24T02:23:59;11.40;;;2.80;;
21315;SDS011;10817;55.820;13.030;2023-08-24T02:26:26;8.20;;;2.97;;
21315;SDS011;10817;55.820;13.030;2023-08-24T02:28:54;7.07;;;2.95;;
21315;SDS011;10817;55.820;13.030;2023-08-24T02:31:23;5.75;;;2.65;;
21315;SDS011;10817;55.820;13.030;2023-08-24T02:33:51;7.18;;;2.58;;
21315;SDS011;10817;55.820;13.030;2023-08-24T02:36:19;8.73;;;3.15;;
21315;SDS011;10817;55.820;13.030;2023-08-24T02:38:47;6.65;;;3.10;;
21315;SDS011;10817;55.820;13.030;2023-08-24T02:41:14;5.65;;;2.85;;
21315;SDS011;10817;55.820;13.030;2023-08-24T02:43:42;6.38;;;2.67;;
21315;SDS011;10817;55.820;13.030;2023-08-24T02:46:09;5.32;;;2.83;;
21315;SDS011;10817;55.820;13.030;2023-08-24T02:48:37;11.75;;;3.33;;
21315;SDS011;10817;55.820;13.030;2023-08-24T02:51:05;7.70;;;2.83;;
21315;SDS011;10817;55.820;13.030;2023-08-24T02:53:34;8.57;;;2.85;;
21315;SDS011;10817;55.820;13.030;2023-08-24T02:56:01;10.45;;;2.72;;
21315;SDS011;10817;55.820;13.030;2023-08-24T02:58:29;7.93;;;2.80;;
21315;SDS011;10817;55.820;13.030;2023-08-24T03:00:57;6.93;;;2.63;;
21315;SDS011;10817;55.820;13.030;2023-08-24T03:03:25;10.65;;;3.30;;
21315;SDS011;10817;55.820;13.030;2023-08-24T03:05:54;13.18;;;2.83;;
21315;SDS011;10817;55.820;13.030;2023-08-24T03:08:22;10.27;;;2.88;;
21315;SDS011;10817;55.820;13.030;2023-08-24T03:10:51;8.85;;;2.80;;
21315;SDS011;10817;55.820;13.030;2023-08-24T03:13:18;8.93;;;2.88;;
21315;SDS011;10817;55.820;13.030;2023-08-24T03:15:46;8.75;;;3.00;;
21315;SDS011;10817;55.820;13.030;2023-08-24T03:18:15;8.45;;;2.92;;
21315;SDS011;10817;55.820;13.030;2023-08-24T03:20:43;7.40;;;2.90;;
21315;SDS011;10817;55.820;13.030;2023-08-24T03:23:13;8.05;;;3.28;;
21315;SDS011;10817;55.820;13.030;2023-08-24T03:25:41;10.70;;;3.00;;
21315;SDS011;10817;55.820;13.030;2023-08-24T03:28:10;5.70;;;2.63;;
21315;SDS011;10817;55.820;13.030;2023-08-24T03:30:38;12.35;;;3.08;;
21315;SDS011;10817;55.820;13.030;2023-08-24T03:33:06;10.63;;;3.67;;
21315;SDS011;10817;55.820;13.030;2023-08-24T03:35:35;7.25;;;2.90;;
21315;SDS011;10817;55.820;13.030;2023-08-24T03:38:02;10.68;;;3.00;;
21315;SDS011;10817;55.820;13.030;2023-08-24T03:40:30;9.93;;;2.90;;
21315;SDS011;10817;55.820;13.030;2023-08-24T03:42:57;9.93;;;3.08;;
21315;SDS011;10817;55.820;13.030;2023-08-24T03:45:26;7.18;;;2.60;;
21315;SDS011;10817;55.820;13.030;2023-08-24T03:47:54;4.97;;;2.45;;
21315;SDS011;10817;55.820;13.030;2023-08-24T03:50:21;6.80;;;2.45;;
21315;SDS011;10817;55.820;13.030;2023-08-24T03:52:50;7.97;;;3.15;;
21315;SDS011;10817;55.820;13.030;2023-08-24T03:55:20;7.55;;;3.05;;
21315;SDS011;10817;55.820;13.030;2023-08-24T03:57:48;11.98;;;2.90;;
21315;SDS011;10817;55.820;13.030;2023-08-24T04:00:15;7.70;;;2.97;;
21315;SDS011;10817;55.820;13.030;2023-08-24T04:02:45;10.02;;;2.80;;
21315;SDS011;10817;55.820;13.030;2023-08-24T04:05:20;6.82;;;2.60;;
21315;SDS011;10817;55.820;13.030;2023-08-24T04:07:47;8.55;;;2.75;;
21315;SDS011;10817;55.820;13.030;2023-08-24T04:10:15;7.30;;;2.75;;
21315;SDS011;10817;55.820;13.030;2023-08-24T04:12:42;12.57;;;3.08;;
21315;SDS011;10817;55.820;13.030;2023-08-24T04:15:10;6.80;;;2.60;;
21315;SDS011;10817;55.820;13.030;2023-08-24T04:17:37;6.30;;;2.85;;
21315;SDS011;10817;55.820;13.030;2023-08-24T04:20:07;8.68;;;2.35;;
21315;SDS011;10817;55.820;13.030;2023-08-24T04:22:35;9.15;;;2.65;;
21315;SDS011;10817;55.820;13.030;2023-08-24T04:25:02;11.77;;;2.63;;
21315;SDS011;10817;55.820;13.030;2023-08-24T04:27:31;4.35;;;2.60;;
21315;SDS011;10817;55.820;13.030;2023-08-24T04:29:58;5.10;;;2.53;;
21315;SDS011;10817;55.820;13.030;2023-08-24T04:32:28;8.05;;;2.50;;
21315;SDS011;10817;55.820;13.030;2023-08-24T04:34:55;5.32;;;2.60;;
21315;SDS011;10817;55.820;13.030;2023-08-24T04:37:24;8.82;;;2.88;;
21315;SDS011;10817;55.820;13.030;2023-08-24T04:39:52;9.52;;;3.45;;
21315;SDS011;10817;55.820;13.030;2023-08-24T04:42:19;12.93;;;3.08;;
21315;SDS011;10817;55.820;13.030;2023-08-24T04:44:46;8.38;;;3.15;;
21315;SDS011;10817;55.820;13.030;2023-08-24T04:47:13;8.52;;;3.25;;
21315;SDS011;10817;55.820;13.030;2023-08-24T04:49:41;7.47;;;3.17;;
21315;SDS011;10817;55.820;13.030;2023-08-24T04:52:08;6.00;;;3.22;;
21315;SDS011;10817;55.820;13.030;2023-08-24T04:54:36;9.43;;;3.00;;
21315;SDS011;10817;55.820;13.030;2023-08-24T04:57:04;8.02;;;3.03;;
21315;SDS011;10817;55.820;13.030;2023-08-24T04:59:32;9.82;;;3.38;;
21315;SDS011;10817;55.820;13.030;2023-08-24T05:02:00;10.88;;;3.40;;
21315;SDS011;10817;55.820;13.030;2023-08-24T05:04:27;6.03;;;3.42;;
21315;SDS011;10817;55.820;13.030;2023-08-24T05:06:54;12.57;;;3.15;;
21315;SDS011;10817;55.820;13.030;2023-08-24T05:09:21;6.47;;;2.88;;
21315;SDS011;10817;55.820;13.030;2023-08-24T05:11:50;10.57;;;3.60;;
21315;SDS011;10817;55.820;13.030;2023-08-24T05:14:17;6.65;;;3.33;;
21315;SDS011;10817;55.820;13.030;2023-08-24T05:16:44;8.02;;;3.33;;
21315;SDS011;10817;55.820;13.030;2023-08-24T05:19:11;9.20;;;3.45;;
21315;SDS011;10817;55.820;13.030;2023-08-24T05:21:38;14.25;;;4.05;;
21315;SDS011;10817;55.820;13.030;2023-08-24T05:24:06;11.32;;;3.83;;
21315;SDS011;10817;55.820;13.030;2023-08-24T05:26:33;9.38;;;3.58;;
21315;SDS011;10817;55.820;13.030;2023-08-24T05:29:01;12.63;;;4.60;;
21315;SDS011;10817;55.820;13.030;2023-08-24T05:31:29;8.65;;;3.60;;
21315;SDS011;10817;55.820;13.030;2023-08-24T05:33:56;7.57;;;3.45;;
21315;SDS011;10817;55.820;13.030;2023-08-24T05:36:23;6.82;;;3.60;;
21315;SDS011;10817;55.820;13.030;2023-08-24T05:38:50;6.57;;;2.95;;
21315;SDS011;10817;55.820;13.030;2023-08-24T05:41:21;8.77;;;2.83;;
21315;SDS011;10817;55.820;13.030;2023-08-24T05:43:48;4.68;;;2.78;;
21315;SDS011;10817;55.820;13.030;2023-08-24T05:46:19;7.85;;;2.65;;
21315;SDS011;10817;55.820;13.030;2023-08-24T05:48:46;8.80;;;2.55;;
21315;SDS011;10817;55.820;13.030;2023-08-24T05:51:13;7.20;;;2.25;;
21315;SDS011;10817;55.820;13.030;2023-08-24T05:53:40;8.70;;;2.20;;
21315;SDS011;10817;55.820;13.030;2023-08-24T05:56:08;7.97;;;1.92;;
21315;SDS011;10817;55.820;13.030;2023-08-24T05:58:35;6.53;;;2.03;;
21315;SDS011;10817;55.820;13.030;2023-08-24T06:01:02;4.43;;;1.90;;
21315;SDS011;10817;55.820;13.030;2023-08-24T06:03:31;5.03;;;1.63;;
21315;SDS011;10817;55.820;13.030;2023-08-24T06:06:01;6.80;;;1.85;;
21315;SDS011;10817;55.820;13.030;2023-08-24T06:08:29;10.68;;;2.30;;
21315;SDS011;10817;55.820;13.030;2023-08-24T06:10:56;11.82;;;1.70;;
21315;SDS011;10817;55.820;13.030;2023-08-24T06:13:23;4.75;;;1.67;;
21315;SDS011;10817;55.820;13.030;2023-08-24T06:15:51;4.35;;;1.42;;
21315;SDS011;10817;55.820;13.030;2023-08-24T06:18:18;8.20;;;2.38;;
21315;SDS011;10817;55.820;13.030;2023-08-24T06:20:46;5.63;;;1.60;;
21315;SDS011;10817;55.820;13.030;2023-08-24T06:23:14;6.70;;;2.00;;
21315;SDS011;10817;55.820;13.030;2023-08-24T06:25:41;5.72;;;1.75;;
21315;SDS011;10817;55.820;13.030;2023-08-24T06:28:08;5.80;;;1.70;;
21315;SDS011;10817;55.820;13.030;2023-08-24T06:30:36;6.40;;;1.45;;
21315;SDS011;10817;55.820;13.030;2023-08-24T06:33:04;7.28;;;1.50;;
21315;SDS011;10817;55.820;13.030;2023-08-24T06:35:31;12.85;;;1.80;;
21315;SDS011;10817;55.820;13.030;2023-08-24T06:38:00;6.95;;;1.75;;
21315;SDS011;10817;55.820;13.030;2023-08-24T06:40:27;10.18;;;1.95;;
21315;SDS011;10817;55.820;13.030;2023-08-24T06:42:55;7.20;;;1.75;;
21315;SDS011;10817;55.820;13.030;2023-08-24T06:45:22;6.85;;;1.65;;
21315;SDS011;10817;55.820;13.030;2023-08-24T06:47:49;8.88;;;1.52;;
21315;SDS011;10817;55.820;13.030;2023-08-24T06:50:17;4.82;;;1.30;;
21315;SDS011;10817;55.820;13.030;2023-08-24T06:52:45;7.20;;;1.70;;
21315;SDS011;10817;55.820;13.030;2023-08-24T06:55:13;5.07;;;1.60;;
21315;SDS011;10817;55.820;13.030;2023-08-24T06:57:41;9.73;;;1.80;;
21315;SDS011;10817;55.820;13.030;2023-08-24T07:00:08;4.80;;;1.45;;
21315;SDS011;10817;55.820;13.030;2023-08-24T07:02:40;8.25;;;1.80;;
21315;SDS011;10817;55.820;13.030;2023-08-24T07:05:07;3.03;;;1.50;;
21315;SDS011;10817;55.820;13.030;2023-08-24T07:07:34;5.53;;;1.40;;
21315;SDS011;10817;55.820;13.030;2023-08-24T07:10:01;6.53;;;1.70;;
21315;SDS011;10817;55.820;13.030;2023-08-24T07:12:30;12.68;;;1.90;;
21315;SDS011;10817;55.820;13.030;2023-08-24T07:14:57;7.13;;;2.03;;
21315;SDS011;10817;55.820;13.030;2023-08-24T07:17:25;7.22;;;1.75;;
21315;SDS011;10817;55.820;13.030;2023-08-24T07:19:52;3.70;;;1.40;;
21315;SDS011;10817;55.820;13.030;2023-08-24T07:22:19;6.82;;;1.58;;
21315;SDS011;10817;55.820;13.030;2023-08-24T07:24:47;12.60;;;1.88;;
21315;SDS011;10817;55.820;13.030;2023-08-24T07:27:17;11.50;;;1.92;;
21315;SDS011;10817;55.820;13.030;2023-08-24T07:29:45;5.88;;;1.65;;
21315;SDS011;10817;55.820;13.030;2023-08-24T07:32:13;3.00;;;1.35;;
21315;SDS011;10817;55.820;13.030;2023-08-24T07:34:40;6.35;;;1.73;;
21315;SDS011;10817;55.820;13.030;2023-08-24T07:37:07;7.22;;;1.40;;
21315;SDS011;10817;55.820;13.030;2023-08-24T07:39:34;8.30;;;1.70;;
21315;SDS011;10817;55.820;13.030;2023-08-24T07:42:02;5.63;;;1.27;;
21315;SDS011;10817;55.820;13.030;2023-08-24T07:44:29;6.93;;;1.42;;
21315;SDS011;10817;55.820;13.030;2023-08-24T07:46:57;7.68;;;1.48;;
21315;SDS011;10817;55.820;13.030;2023-08-24T07:49:25;7.63;;;1.50;;
21315;SDS011;10817;55.820;13.030;2023-08-24T07:51:52;5.63;;;1.45;;
21315;SDS011;10817;55.820;13.030;2023-08-24T07:54:20;3.83;;;1.30;;
21315;SDS011;10817;55.820;13.030;2023-08-24T07:56:48;3.83;;;1.30;;
21315;SDS011;10817;55.820;13.030;2023-08-24T07:59:15;6.82;;;1.40;;
21315;SDS011;10817;55.820;13.030;2023-08-24T08:01:42;5.15;;;1.63;;
21315;SDS011;10817;55.820;13.030;2023-08-24T08:04:10;5.47;;;1.35;;
21315;SDS011;10817;55.820;13.030;2023-08-24T08:06:38;5.97;;;1.55;;
21315;SDS011;10817;55.820;13.030;2023-08-24T08:09:05;6.00;;;1.33;;
21315;SDS011;10817;55.820;13.030;2023-08-24T08:11:32;4.65;;;1.50;;
21315;SDS011;10817;55.820;13.030;2023-08-24T08:13:59;6.25;;;1.73;;
21315;SDS011;10817;55.820;13.030;2023-08-24T08:16:27;3.63;;;1.42;;
21315;SDS011;10817;55.820;13.030;2023-08-24T08:18:54;4.57;;;1.55;;
21315;SDS011;10817;55.820;13.030;2023-08-24T08:21:23;4.15;;;1.45;;
21315;SDS011;10817;55.820;13.030;2023-08-24T08:23:50;4.82;;;1.40;;
21315;SDS011;10817;55.820;13.030;2023-08-24T08:26:17;6.35;;;1.58;;
21315;SDS011;10817;55.820;13.030;2023-08-24T08:28:44;6.88;;;1.73;;
21315;SDS011;10817;55.820;13.030;2023-08-24T08:31:11;2.92;;;1.30;;
21315;SDS011;10817;55.820;13.030;2023-08-24T08:33:39;6.97;;;1.42;;
21315;SDS011;10817;55.820;13.030;2023-08-24T08:36:06;7.70;;;1.65;;
21315;SDS011;10817;55.820;13.030;2023-08-24T08:38:35;5.07;;;1.30;;
21315;SDS011;10817;55.820;13.030;2023-08-24T08:41:02;10.07;;;1.90;;
21315;SDS011;10817;55.820;13.030;2023-08-24T08:43:30;4.93;;;1.48;;
21315;SDS011;10817;55.820;13.030;2023-08-24T08:45:57;4.10;;;1.27;;
21315;SDS011;10817;55.820;13.030;2023-08-24T08:48:25;4.78;;;1.20;;
21315;SDS011;10817;55.820;13.030;2023-08-24T08:50:52;7.50;;;1.50;;
21315;SDS011;10817;55.820;13.030;2023-08-24T08:53:21;4.22;;;1.20;;
21315;SDS011;10817;55.820;13.030;2023-08-24T08:55:50;4.35;;;1.27;;
21315;SDS011;10817;55.820;13.030;2023-08-24T08:58:18;6.38;;;1.55;;
21315;SDS011;10817;55.820;13.030;2023-08-24T09:00:46;4.63;;;1.50;;
21315;SDS011;10817;55.820;13.030;2023-08-24T09:03:14;2.67;;;1.38;;
21315;SDS011;10817;55.820;13.030;2023-08-24T09:05:41;4.97;;;1.80;;
21315;SDS011;10817;55.820;13.030;2023-08-24T09:08:08;6.80;;;1.60;;
21315;SDS011;10817;55.820;13.030;2023-08-24T09:10:36;5.40;;;1.80;;
21315;SDS011;10817;55.820;13.030;2023-08-24T09:13:04;5.72;;;1.10;;
21315;SDS011;10817;55.820;13.030;2023-08-24T09:15:34;5.13;;;1.23;;
21315;SDS011;10817;55.820;13.030;2023-08-24T09:18:01;5.32;;;1.38;;
21315;SDS011;10817;55.820;13.030;2023-08-24T09:20:28;4.72;;;1.30;;
21315;SDS011;10817;55.820;13.030;2023-08-24T09:22:56;5.40;;;1.23;;
21315;SDS011;10817;55.820;13.030;2023-08-24T09:25:23;5.95;;;1.70;;
21315;SDS011;10817;55.820;13.030;2023-08-24T09:27:57;7.60;;;1.40;;
21315;SDS011;10817;55.820;13.030;2023-08-24T09:30:29;3.40;;;1.30;;
21315;SDS011;10817;55.820;13.030;2023-08-24T09:33:00;3.28;;;1.30;;
21315;SDS011;10817;55.820;13.030;2023-08-24T09:35:28;2.70;;;0.90;;
21315;SDS011;10817;55.820;13.030;2023-08-24T09:37:55;1.55;;;0.80;;
21315;SDS011;10817;55.820;13.030;2023-08-24T09:40:23;1.73;;;0.90;;
21315;SDS011;10817;55.820;13.030;2023-08-24T09:42:51;2.15;;;0.80;;
21315;SDS011;10817;55.820;13.030;2023-08-24T09:45:18;1.20;;;0.80;;
21315;SDS011;10817;55.820;13.030;2023-08-24T09:47:48;2.28;;;0.82;;
21315;SDS011;10817;55.820;13.030;2023-08-24T09:50:16;1.20;;;0.63;;
21315;SDS011;10817;55.820;13.030;2023-08-24T09:52:43;2.22;;;0.80;;
21315;SDS011;10817;55.820;13.030;2023-08-24T09:55:11;3.08;;;0.88;;
21315;SDS011;10817;55.820;13.030;2023-08-24T09:57:39;2.70;;;0.80;;
21315;SDS011;10817;55.820;13.030;2023-08-24T10:00:07;3.47;;;1.02;;
21315;SDS011;10817;55.820;13.030;2023-08-24T10:02:36;4.00;;;1.25;;
21315;SDS011;10817;55.820;13.030;2023-08-24T10:05:05;2.30;;;0.80;;
21315;SDS011;10817;55.820;13.030;2023-08-24T10:07:35;1.90;;;0.90;;
21315;SDS011;10817;55.820;13.030;2023-08-24T10:10:03;2.47;;;0.80;;
21315;SDS011;10817;55.820;13.030;2023-08-24T10:12:31;2.95;;;0.90;;
21315;SDS011;10817;55.820;13.030;2023-08-24T10:15:00;2.28;;;1.00;;
21315;SDS011;10817;55.820;13.030;2023-08-24T10:17:28;3.15;;;1.00;;
21315;SDS011;10817;55.820;13.030;2023-08-24T10:19:56;2.35;;;0.90;;
21315;SDS011;10817;55.820;13.030;2023-08-24T10:22:27;1.85;;;1.00;;
21315;SDS011;10817;55.820;13.030;2023-08-24T10:24:55;3.42;;;0.80;;
21315;SDS011;10817;55.820;13.030;2023-08-24T10:27:23;3.30;;;0.90;;
21315;SDS011;10817;55.820;13.030;2023-08-24T10:29:50;5.10;;;0.80;;
21315;SDS011;10817;55.820;13.030;2023-08-24T10:32:17;1.70;;;0.85;;
21315;SDS011;10817;55.820;13.030;2023-08-24T10:34:46;2.88;;;0.80;;
21315;SDS011;10817;55.820;13.030;2023-08-24T10:37:13;2.03;;;0.73;;
21315;SDS011;10817;55.820;13.030;2023-08-24T10:39:46;1.48;;;0.60;;
21315;SDS011;10817;55.820;13.030;2023-08-24T10:42:14;3.10;;;0.60;;
21315;SDS011;10817;55.820;13.030;2023-08-24T10:44:43;2.38;;;0.90;;
21315;SDS011;10817;55.820;13.030;2023-08-24T10:47:11;3.45;;;0.90;;
21315;SDS011;10817;55.820;13.030;2023-08-24T10:49:39;2.28;;;0.80;;
21315;SDS011;10817;55.820;13.030;2023-08-24T10:52:19;1.83;;;0.63;;
21315;SDS011;10817;55.820;13.030;2023-08-24T10:54:48;1.55;;;0.60;;
21315;SDS011;10817;55.820;13.030;2023-08-24T10:57:22;7.68;;;0.90;;
21315;SDS011;10817;55.820;13.030;2023-08-24T10:59:59;2.60;;;0.70;;
21315;SDS011;10817;55.820;13.030;2023-08-24T11:02:26;2.42;;;0.75;;
21315;SDS011;10817;55.820;13.030;2023-08-24T11:05:03;2.03;;;0.68;;
21315;SDS011;10817;55.820;13.030;2023-08-24T11:07:30;1.55;;;0.63;;
21315;SDS011;10817;55.820;13.030;2023-08-24T11:09:59;2.10;;;0.93;;
21315;SDS011;10817;55.820;13.030;2023-08-24T11:12:27;2.15;;;0.63;;
21315;SDS011;10817;55.820;13.030;2023-08-24T11:14:54;1.77;;;0.60;;
21315;SDS011;10817;55.820;13.030;2023-08-24T11:17:24;2.45;;;0.80;;
21315;SDS011;10817;55.820;13.030;2023-08-24T11:19:51;2.67;;;0.60;;
21315;SDS011;10817;55.820;13.030;2023-08-24T11:22:19;3.03;;;0.57;;
21315;SDS011;10817;55.820;13.030;2023-08-24T11:24:47;2.42;;;0.52;;
21315;SDS011;10817;55.820;13.030;2023-08-24T11:27:15;4.22;;;0.60;;
21315;SDS011;10817;55.820;13.030;2023-08-24T11:29:43;1.33;;;0.65;;
21315;SDS011;10817;55.820;13.030;2023-08-24T11:32:10;1.92;;;0.65;;
21315;SDS011;10817;55.820;13.030;2023-08-24T11:34:37;2.92;;;0.65;;
21315;SDS011;10817;55.820;13.030;2023-08-24T11:37:05;1.80;;;0.70;;
21315;SDS011;10817;55.820;13.030;2023-08-24T11:39:32;0.88;;;0.60;;
21315;SDS011;10817;55.820;13.030;2023-08-24T11:42:00;3.88;;;0.77;;
21315;SDS011;10817;55.820;13.030;2023-08-24T11:44:29;1.55;;;0.63;;
21315;SDS011;10817;55.820;13.030;2023-08-24T11:46:56;1.38;;;0.60;;
21315;SDS011;10817;55.820;13.030;2023-08-24T11:49:24;2.05;;;0.77;;
21315;SDS011;10817;55.820;13.030;2023-08-24T11:51:51;2.92;;;0.70;;
21315;SDS011;10817;55.820;13.030;2023-08-24T11:54:18;1.17;;;0.52;;
21315;SDS011;10817;55.820;13.030;2023-08-24T11:56:46;3.58;;;0.70;;
21315;SDS011;10817;55.820;13.030;2023-08-24T11:59:13;1.60;;;0.50;;
21315;SDS011;10817;55.820;13.030;2023-08-24T12:01:43;0.75;;;0.45;;
21315;SDS011;10817;55.820;13.030;2023-08-24T12:04:12;2.22;;;0.82;;
21315;SDS011;10817;55.820;13.030;2023-08-24T12:06:39;1.30;;;0.50;;
21315;SDS011;10817;55.820;13.030;2023-08-24T12:09:07;1.45;;;0.65;;
21315;SDS011;10817;55.820;13.030;2023-08-24T12:11:35;4.13;;;0.88;;
21315;SDS011;10817;55.820;13.030;2023-08-24T12:14:02;1.83;;;0.65;;
21315;SDS011;10817;55.820;13.030;2023-08-24T12:16:31;1.98;;;0.70;;
21315;SDS011;10817;55.820;13.030;2023-08-24T12:19:00;2.10;;;0.68;;
21315;SDS011;10817;55.820;13.030;2023-08-24T12:21:29;1.38;;;0.63;;
21315;SDS011;10817;55.820;13.030;2023-08-24T12:23:57;3.50;;;0.70;;
21315;SDS011;10817;55.820;13.030;2023-08-24T12:26:25;3.30;;;0.60;;
21315;SDS011;10817;55.820;13.030;2023-08-24T12:28:52;2.20;;;0.50;;
21315;SDS011;10817;55.820;13.030;2023-08-24T12:31:19;0.85;;;0.50;;
21315;SDS011;10817;55.820;13.030;2023-08-24T12:33:58;2.67;;;0.70;;
21315;SDS011;10817;55.820;13.030;2023-08-24T12:36:26;1.13;;;0.60;;
21315;SDS011;10817;55.820;13.030;2023-08-24T12:38:53;2.28;;;0.63;;
21315;SDS011;10817;55.820;13.030;2023-08-24T12:41:21;1.13;;;0.50;;
21315;SDS011;10817;55.820;13.030;2023-08-24T12:43:49;3.00;;;0.93;;
21315;SDS011;10817;55.820;13.030;2023-08-24T12:46:17;2.28;;;0.80;;
21315;SDS011;10817;55.820;13.030;2023-08-24T12:48:44;1.77;;;0.70;;
21315;SDS011;10817;55.820;13.030;2023-08-24T12:51:11;1.63;;;0.60;;
21315;SDS011;10817;55.820;13.030;2023-08-24T12:53:40;1.85;;;0.40;;
21315;SDS011;10817;55.820;13.030;2023-08-24T12:56:07;2.13;;;0.63;;
21315;SDS011;10817;55.820;13.030;2023-08-24T12:58:34;0.95;;;0.57;;
21315;SDS011;10817;55.820;13.030;2023-08-24T13:01:01;0.98;;;0.52;;
21315;SDS011;10817;55.820;13.030;2023-08-24T13:03:29;2.35;;;0.60;;
21315;SDS011;10817;55.820;13.030;2023-08-24T13:05:56;2.78;;;0.60;;
21315;SDS011;10817;55.820;13.030;2023-08-24T13:08:23;1.17;;;0.50;;
21315;SDS011;10817;55.820;13.030;2023-08-24T13:10:52;4.22;;;0.77;;
21315;SDS011;10817;55.820;13.030;2023-08-24T13:13:19;1.70;;;0.70;;
21315;SDS011;10817;55.820;13.030;2023-08-24T13:15:47;1.65;;;0.60;;
21315;SDS011;10817;55.820;13.030;2023-08-24T13:18:14;2.00;;;0.60;;
21315;SDS011;10817;55.820;13.030;2023-08-24T13:20:42;1.90;;;0.60;;
21315;SDS011;10817;55.820;13.030;2023-08-24T13:23:09;2.15;;;0.60;;
21315;SDS011;10817;55.820;13.030;2023-08-24T13:25:36;1.20;;;0.57;;
21315;SDS011;10817;55.820;13.030;2023-08-24T13:28:05;1.63;;;0.70;;
21315;SDS011;10817;55.820;13.030;2023-08-24T13:30:32;1.35;;;0.60;;
21315;SDS011;10817;55.820;13.030;2023-08-24T13:32:59;1.58;;;0.60;;
21315;SDS011;10817;55.820;13.030;2023-08-24T13:35:26;1.95;;;0.65;;
21315;SDS011;10817;55.820;13.030;2023-08-24T13:37:54;1.48;;;0.50;;
21315;SDS011;10817;55.820;13.030;2023-08-24T13:40:21;2.80;;;0.95;;
21315;SDS011;10817;55.820;13.030;2023-08-24T13:42:48;1.33;;;0.60;;
21315;SDS011;10817;55.820;13.030;2023-08-24T13:45:17;1.92;;;0.65;;
21315;SDS011;10817;55.820;13.030;2023-08-24T13:47:45;0.93;;;0.50;;
21315;SDS011;10817;55.820;13.030;2023-08-24T13:50:13;1.20;;;0.52;;
21315;SDS011;10817;55.820;13.030;2023-08-24T13:52:40;2.80;;;0.70;;
21315;SDS011;10817;55.820;13.030;2023-08-24T13:55:07;3.42;;;0.60;;
21315;SDS011;10817;55.820;13.030;2023-08-24T13:57:34;1.60;;;0.63;;
21315;SDS011;10817;55.820;13.030;2023-08-24T14:00:02;0.90;;;0.52;;
21315;SDS011;10817;55.820;13.030;2023-08-24T14:02:39;1.45;;;0.50;;
21315;SDS011;10817;55.820;13.030;2023-08-24T14:05:06;2.20;;;0.80;;
21315;SDS011;10817;55.820;13.030;2023-08-24T14:07:34;2.20;;;0.77;;
21315;SDS011;10817;55.820;13.030;2023-08-24T14:10:02;1.75;;;0.73;;
21315;SDS011;10817;55.820;13.030;2023-08-24T14:12:29;1.25;;;0.50;;
21315;SDS011;10817;55.820;13.030;2023-08-24T14:14:56;1.25;;;0.60;;
21315;SDS011;10817;55.820;13.030;2023-08-24T14:17:23;2.15;;;0.70;;
21315;SDS011;10817;55.820;13.030;2023-08-24T14:19:52;4.45;;;0.70;;
21315;SDS011;10817;55.820;13.030;2023-08-24T14:22:19;3.22;;;0.70;;
21315;SDS011;10817;55.820;13.030;2023-08-24T14:24:46;2.28;;;0.80;;
21315;SDS011;10817;55.820;13.030;2023-08-24T14:27:14;3.50;;;0.60;;
21315;SDS011;10817;55.820;13.030;2023-08-24T14:29:41;1.95;;;0.70;;
21315;SDS011;10817;55.820;13.030;2023-08-24T14:32:08;1.90;;;0.70;;
21315;SDS011;10817;55.820;13.030;2023-08-24T14:34:35;1.77;;;0.70;;
21315;SDS011;10817;55.820;13.030;2023-08-24T14:37:04;4.20;;;0.80;;